Time;durP1;ratioP1;P1;durP2;ratioP2;P2;SDS_P1;SDS_P2;PMS_P1;PMS_P2;Temp;Humidity;BMP_temperature;BMP_pressure;BME280_temperature;BME280_humidity;BME280_pressure;Samples;Min_cycle;Max_cycle;Signal;HPM_P1;HPM_P2
2023/04/08 00:00:57;;;;;;;89.00;41.00;;;;;;;;;;107586;1251;22547;-80
2023/04/08 00:03:24;;;;;;;91.90;45.50;;;;;;;;;;107652;1251;26343;-78
2023/04/08 00:05:50;;;;;;;95.10;47.90;;;;;;;;;;107655;1251;25334;-78
2023/04/08 00:08:17;;;;;;;92.40;45.20;;;;;;;;;;107624;1251;22704;-81
2023/04/08 00:10:43;;;;;;;100.30;52.00;;;;;;;;;;107644;1251;22535;-78
2023/04/08 00:13:10;;;;;;;108.50;50.90;;;;;;;;;;107662;1251;22988;-78
2023/04/08 00:15:36;;;;;;;104.40;52.80;;;;;;;;;;107907;1251;22774;-80
2023/04/08 00:18:02;;;;;;;100.90;55.30;;;;;;;;;;108222;1250;25489;-79
2023/04/08 00:20:29;;;;;;;118.70;59.50;;;;;;;;;;107704;1254;22532;-80
2023/04/08 00:22:55;;;;;;;103.80;50.60;;;;;;;;;;107821;1251;24298;-78
2023/04/08 00:25:22;;;;;;;108.70;51.00;;;;;;;;;;107626;1251;22527;-78
2023/04/08 00:27:48;;;;;;;85.80;45.70;;;;;;;;;;107599;1251;24262;-80
2023/04/08 00:30:15;;;;;;;85.50;43.40;;;;;;;;;;107560;1252;22679;-78
2023/04/08 00:32:41;;;;;;;82.50;41.20;;;;;;;;;;108771;1250;22481;-80
2023/04/08 00:35:07;;;;;;;84.10;41.40;;;;;;;;;;110846;1250;22374;-79
2023/04/08 00:37:34;;;;;;;83.00;41.60;;;;;;;;;;107970;1250;25109;-78
2023/04/08 00:40:00;;;;;;;85.80;41.50;;;;;;;;;;107505;1252;24275;-76
2023/04/08 00:42:29;;;;;;;84.60;41.90;;;;;;;;;;110308;1250;22440;-78
2023/04/08 00:44:55;;;;;;;;;;;;;;;;;;110864;1249;23160;-79
2023/04/08 00:47:22;;;;;;;73.00;37.50;;;;;;;;;;108167;1249;22529;-77
2023/04/08 00:49:48;;;;;;;69.00;36.00;;;;;;;;;;107581;1250;22592;-78
2023/04/08 00:52:15;;;;;;;80.50;41.40;;;;;;;;;;107576;1250;23038;-76
2023/04/08 00:54:42;;;;;;;71.80;37.60;;;;;;;;;;107527;1250;22642;-77
2023/04/08 00:57:08;;;;;;;76.90;36.90;;;;;;;;;;107557;1249;22526;-78
2023/04/08 00:59:37;;;;;;;81.30;38.20;;;;;;;;;;108716;1249;22230;-79
2023/04/08 01:02:05;;;;;;;;;;;;;;;;;;110867;1250;22424;-77
2023/04/08 01:04:43;;;;;;;79.80;37.50;;;;;;;;;;110824;1248;22358;-78
2023/04/08 01:07:21;;;;;;;70.10;37.80;;;;;;;;;;110857;1250;22444;-78
2023/04/08 01:09:48;;;;;;;65.30;35.70;;;;;;;;;;110800;1253;22332;-77
2023/04/08 01:12:17;;;;;;;73.70;38.90;;;;;;;;;;108373;1250;22515;-77
2023/04/08 01:14:43;;;;;;;65.10;34.90;;;;;;;;;;107586;1250;22572;-77
2023/04/08 01:17:10;;;;;;;70.30;38.00;;;;;;;;;;109932;1250;23093;-77
2023/04/08 01:19:37;;;;;;;68.60;38.00;;;;;;;;;;110864;1250;22238;-78
2023/04/08 01:22:22;;;;;;;65.00;35.90;;;;;;;;;;110885;1249;22866;-79
2023/04/08 01:24:49;;;;;;;66.90;37.20;;;;;;;;;;110890;1250;22817;-78
2023/04/08 01:27:15;;;;;;;64.70;36.80;;;;;;;;;;108617;1248;22530;-77
2023/04/08 01:29:41;;;;;;;76.00;39.70;;;;;;;;;;107542;1252;22535;-80
2023/04/08 01:32:08;;;;;;;71.40;39.10;;;;;;;;;;107741;1250;22727;-81
2023/04/08 01:34:34;;;;;;;70.90;36.30;;;;;;;;;;107715;1250;25492;-78
2023/04/08 01:37:01;;;;;;;66.20;36.10;;;;;;;;;;107609;1252;25374;-79
2023/04/08 01:39:27;;;;;;;61.50;34.90;;;;;;;;;;107588;1250;22716;-78
2023/04/08 01:41:54;;;;;;;65.70;33.70;;;;;;;;;;107597;1250;22472;-79
2023/04/08 01:44:20;;;;;;;50.70;29.50;;;;;;;;;;107605;1250;24233;-77
2023/04/08 01:46:46;;;;;;;54.00;29.30;;;;;;;;;;107605;1252;22587;-78
2023/04/08 01:49:13;;;;;;;62.90;35.50;;;;;;;;;;107530;1250;22593;-79
2023/04/08 01:51:39;;;;;;;61.90;35.30;;;;;;;;;;107542;1249;24359;-79
2023/04/08 01:54:06;;;;;;;60.30;33.20;;;;;;;;;;107529;1253;22959;-78
2023/04/08 01:56:35;;;;;;;71.20;35.40;;;;;;;;;;107569;1250;22650;-79
2023/04/08 01:59:01;;;;;;;71.60;34.50;;;;;;;;;;107876;1249;146726;-78
2023/04/08 02:01:28;;;;;;;55.70;32.00;;;;;;;;;;110910;1250;22333;-78
2023/04/08 02:03:56;;;;;;;58.40;31.00;;;;;;;;;;110767;1249;22325;-79
2023/04/08 02:06:22;;;;;;;55.30;32.40;;;;;;;;;;110693;1251;22395;-78
2023/04/08 02:08:48;;;;;;;60.50;34.30;;;;;;;;;;111011;1249;23098;-78
2023/04/08 02:11:15;;;;;;;56.40;34.40;;;;;;;;;;110981;1249;22288;-80
2023/04/08 02:13:41;;;;;;;67.50;36.40;;;;;;;;;;110954;1251;23210;-81
2023/04/08 02:16:09;;;;;;;91.80;40.60;;;;;;;;;;109861;1255;25325;-79
2023/04/08 02:18:36;;;;;;;63.30;30.90;;;;;;;;;;110991;1251;22436;-79
2023/04/08 02:21:10;;;;;;;72.00;37.30;;;;;;;;;;110744;1249;22510;-79
2023/04/08 02:23:37;;;;;;;76.70;39.10;;;;;;;;;;110769;1251;22243;-80
2023/04/08 02:26:03;;;;;;;66.90;33.40;;;;;;;;;;110938;1251;22336;-78
2023/04/08 02:28:30;;;;;;;59.50;36.50;;;;;;;;;;110847;1250;22938;-80
2023/04/08 02:30:56;;;;;;;55.40;32.10;;;;;;;;;;110877;1249;22280;-80
2023/04/08 02:33:22;;;;;;;57.30;34.40;;;;;;;;;;110955;1250;22351;-80
2023/04/08 02:35:49;;;;;;;58.60;34.20;;;;;;;;;;110921;1250;23106;-79
2023/04/08 02:38:15;;;;;;;47.30;25.20;;;;;;;;;;110978;1250;22453;-80
2023/04/08 02:40:42;;;;;;;53.30;26.80;;;;;;;;;;110991;1250;22372;-80
2023/04/08 02:43:08;;;;;;;42.00;23.60;;;;;;;;;;110833;1253;22305;-80
2023/04/08 02:45:39;;;;;;;47.60;25.60;;;;;;;;;;110871;1250;22331;-79
2023/04/08 02:48:07;;;;;;;41.00;23.10;;;;;;;;;;110861;1250;22040;-79
2023/04/08 02:50:34;;;;;;;46.40;23.80;;;;;;;;;;109016;1250;22527;-78
2023/04/08 02:53:00;;;;;;;46.70;25.10;;;;;;;;;;107550;1250;22628;-78
2023/04/08 02:55:26;;;;;;;48.90;26.80;;;;;;;;;;107548;1252;22518;-81
2023/04/08 02:57:53;;;;;;;48.10;24.20;;;;;;;;;;107507;1250;22525;-78
2023/04/08 03:00:19;;;;;;;43.50;22.40;;;;;;;;;;108006;1250;23758;-79
2023/04/08 03:02:45;;;;;;;42.00;23.40;;;;;;;;;;107552;1253;22512;-79
2023/04/08 03:05:12;;;;;;;42.60;23.90;;;;;;;;;;109638;1250;22415;-78
2023/04/08 03:07:38;;;;;;;48.80;25.40;;;;;;;;;;110869;1250;23194;-78
2023/04/08 03:10:05;;;;;;;42.40;23.50;;;;;;;;;;110799;1253;22255;-78
2023/04/08 03:12:31;;;;;;;41.40;22.10;;;;;;;;;;110858;1249;22364;-78
2023/04/08 03:14:58;;;;;;;41.60;22.80;;;;;;;;;;110896;1250;22271;-80
2023/04/08 03:17:24;;;;;;;42.50;22.50;;;;;;;;;;110834;1250;23335;-80
2023/04/08 03:19:51;;;;;;;42.80;24.40;;;;;;;;;;110894;1249;22353;-78
2023/04/08 03:22:17;;;;;;;45.40;22.80;;;;;;;;;;110833;1251;22105;-80
2023/04/08 03:24:44;;;;;;;47.80;23.60;;;;;;;;;;110776;1250;23193;-79
2023/04/08 03:27:11;;;;;;;39.70;22.10;;;;;;;;;;110850;1250;22959;-79
2023/04/08 03:29:37;;;;;;;40.20;21.80;;;;;;;;;;110840;1250;23042;-80
2023/04/08 03:32:04;;;;;;;39.10;22.80;;;;;;;;;;110893;1250;23037;-80
2023/04/08 03:34:30;;;;;;;42.60;20.00;;;;;;;;;;110850;1249;22430;-80
2023/04/08 03:36:57;;;;;;;37.40;19.60;;;;;;;;;;110885;1249;22243;-79
2023/04/08 03:39:23;;;;;;;41.80;23.70;;;;;;;;;;110988;1250;22233;-78
2023/04/08 03:41:50;;;;;;;43.80;22.70;;;;;;;;;;108503;1250;25340;-80
2023/04/08 03:44:16;;;;;;;37.60;20.70;;;;;;;;;;107596;1252;22522;-78
2023/04/08 03:46:42;;;;;;;36.80;22.30;;;;;;;;;;107529;1251;22523;-78
2023/04/08 03:49:08;;;;;;;38.50;21.70;;;;;;;;;;107573;1250;24219;-79
2023/04/08 03:51:35;;;;;;;38.90;24.50;;;;;;;;;;107605;1252;25455;-79
2023/04/08 03:54:01;;;;;;;33.10;18.60;;;;;;;;;;107590;1252;24213;-78
2023/04/08 03:56:27;;;;;;;34.30;19.70;;;;;;;;;;107528;1250;25339;-79
2023/04/08 03:58:54;;;;;;;32.40;18.70;;;;;;;;;;109410;1249;23032;-79
2023/04/08 04:01:20;;;;;;;44.90;25.00;;;;;;;;;;109619;1254;22536;-79
2023/04/08 04:03:46;;;;;;;43.30;23.20;;;;;;;;;;108905;1249;23041;-80
2023/04/08 04:06:13;;;;;;;44.00;23.30;;;;;;;;;;110799;1250;22481;-80
2023/04/08 04:08:39;;;;;;;45.30;25.00;;;;;;;;;;109078;1253;24214;-79
2023/04/08 04:11:06;;;;;;;44.50;24.40;;;;;;;;;;107572;1255;23664;-78
2023/04/08 04:13:32;;;;;;;46.30;26.30;;;;;;;;;;107498;1254;22543;-79
2023/04/08 04:15:59;;;;;;;43.70;22.80;;;;;;;;;;107528;1251;25348;-79
2023/04/08 04:18:25;;;;;;;33.00;19.70;;;;;;;;;;107542;1249;24095;-79
2023/04/08 04:20:52;;;;;;;38.10;19.80;;;;;;;;;;107548;1254;22539;-78
2023/04/08 04:23:18;;;;;;;34.70;20.60;;;;;;;;;;107546;1251;23082;-79
2023/04/08 04:25:44;;;;;;;33.20;20.10;;;;;;;;;;107722;1251;24205;-79
2023/04/08 04:28:11;;;;;;;34.40;20.70;;;;;;;;;;107556;1253;22522;-78
2023/04/08 04:30:38;;;;;;;30.00;18.50;;;;;;;;;;107550;1251;25338;-78
2023/04/08 04:33:05;;;;;;;29.70;18.90;;;;;;;;;;107583;1250;26139;-79
2023/04/08 04:35:31;;;;;;;34.50;18.20;;;;;;;;;;107531;1252;24378;-78
2023/04/08 04:37:58;;;;;;;30.90;16.30;;;;;;;;;;107568;1250;24072;-78
2023/04/08 04:40:24;;;;;;;62.00;31.70;;;;;;;;;;107546;1250;24318;-79
2023/04/08 04:42:50;;;;;;;40.30;21.70;;;;;;;;;;107555;1254;23014;-78
2023/04/08 04:45:17;;;;;;;45.90;23.60;;;;;;;;;;107509;1251;24245;-79
2023/04/08 04:47:43;;;;;;;46.20;25.30;;;;;;;;;;107546;1251;22526;-79
2023/04/08 04:50:10;;;;;;;44.90;24.70;;;;;;;;;;107519;1250;22517;-79
2023/04/08 04:52:36;;;;;;;69.20;35.60;;;;;;;;;;107519;1251;22656;-76
2023/04/08 04:55:03;;;;;;;67.90;38.80;;;;;;;;;;107518;1252;22536;-79
2023/04/08 04:57:29;;;;;;;91.90;58.40;;;;;;;;;;107515;1253;22555;-77
2023/04/08 04:59:55;;;;;;;39.60;22.60;;;;;;;;;;107499;1254;22580;-78
2023/04/08 05:02:21;;;;;;;51.40;27.40;;;;;;;;;;107552;1251;24190;-78
2023/04/08 05:04:48;;;;;;;50.30;27.00;;;;;;;;;;107529;1251;23580;-77
2023/04/08 05:07:15;;;;;;;46.20;26.20;;;;;;;;;;107544;1253;22518;-77
2023/04/08 05:09:41;;;;;;;68.00;51.00;;;;;;;;;;107534;1250;24188;-78
2023/04/08 05:12:08;;;;;;;125.80;97.40;;;;;;;;;;107579;1253;22865;-77
2023/04/08 05:14:35;;;;;;;96.00;72.90;;;;;;;;;;107544;1253;27424;-78
2023/04/08 05:17:01;;;;;;;43.90;30.30;;;;;;;;;;107546;1253;25496;-77
2023/04/08 05:19:27;;;;;;;41.80;26.10;;;;;;;;;;107520;1252;22535;-77
2023/04/08 05:21:54;;;;;;;44.40;26.00;;;;;;;;;;107505;1253;23735;-78
2023/04/08 05:24:20;;;;;;;38.90;23.60;;;;;;;;;;107777;1251;25278;-77
2023/04/08 05:26:51;;;;;;;46.70;25.30;;;;;;;;;;107572;1253;23670;-78
2023/04/08 05:29:18;;;;;;;32.80;19.60;;;;;;;;;;107504;1252;22534;-77
2023/04/08 05:31:44;;;;;;;39.70;22.10;;;;;;;;;;107527;1251;22618;-77
2023/04/08 05:34:10;;;;;;;37.80;21.40;;;;;;;;;;107569;1251;22567;-78
2023/04/08 05:36:37;;;;;;;37.20;20.90;;;;;;;;;;107535;1251;23791;-76
2023/04/08 05:39:03;;;;;;;35.30;20.70;;;;;;;;;;107535;1251;22555;-77
2023/04/08 05:41:29;;;;;;;29.60;17.60;;;;;;;;;;107475;1251;22548;-79
2023/04/08 05:43:56;;;;;;;35.90;20.20;;;;;;;;;;107538;1251;24239;-78
2023/04/08 05:46:22;;;;;;;35.50;22.00;;;;;;;;;;107538;1250;25249;-81
2023/04/08 05:48:49;;;;;;;35.40;20.90;;;;;;;;;;107618;1252;22528;-78
2023/04/08 05:51:16;;;;;;;35.80;20.10;;;;;;;;;;107561;1254;26354;-77
2023/04/08 05:53:46;;;;;;;32.80;18.70;;;;;;;;;;107529;1253;22483;-79
2023/04/08 05:56:12;;;;;;;36.90;20.30;;;;;;;;;;107469;1252;22533;-79
2023/04/08 05:58:38;;;;;;;33.80;19.50;;;;;;;;;;107530;1254;24200;-79
2023/04/08 06:01:06;;;;;;;38.40;21.70;;;;;;;;;;107522;1251;25217;-78
2023/04/08 06:03:32;;;;;;;35.10;20.40;;;;;;;;;;107490;1252;22557;-80
2023/04/08 06:05:58;;;;;;;32.90;20.80;;;;;;;;;;107522;1251;24312;-79
2023/04/08 06:08:25;;;;;;;42.90;23.30;;;;;;;;;;107489;1250;22616;-80
2023/04/08 06:10:51;;;;;;;39.30;23.00;;;;;;;;;;107514;1254;22523;-79
2023/04/08 06:13:19;;;;;;;70.70;55.40;;;;;;;;;;107512;1251;22526;-79
2023/04/08 06:15:45;;;;;;;104.20;87.80;;;;;;;;;;107477;1252;23423;-78
2023/04/08 06:18:11;;;;;;;82.00;67.50;;;;;;;;;;107526;1249;22650;-78
2023/04/08 06:20:38;;;;;;;47.70;34.60;;;;;;;;;;107512;1251;22519;-79
2023/04/08 06:23:04;;;;;;;36.70;22.60;;;;;;;;;;107509;1251;25393;-78
2023/04/08 06:25:31;;;;;;;50.00;39.70;;;;;;;;;;107511;1251;25203;-79
2023/04/08 06:27:57;;;;;;;54.10;40.70;;;;;;;;;;107492;1251;22528;-77
2023/04/08 06:30:23;;;;;;;67.60;50.30;;;;;;;;;;107618;1251;22537;-78
2023/04/08 06:32:50;;;;;;;42.80;28.20;;;;;;;;;;107489;1250;22637;-77
2023/04/08 06:35:16;;;;;;;36.10;23.70;;;;;;;;;;107539;1250;24343;-78
2023/04/08 06:37:42;;;;;;;34.10;20.20;;;;;;;;;;107630;1250;25278;-78
2023/04/08 06:40:09;;;;;;;40.50;25.10;;;;;;;;;;107535;1252;22515;-80
2023/04/08 06:42:37;;;;;;;34.40;21.80;;;;;;;;;;107513;1253;22553;-78
2023/04/08 06:45:04;;;;;;;35.70;22.00;;;;;;;;;;107497;1250;22563;-80
2023/04/08 06:47:30;;;;;;;39.10;24.50;;;;;;;;;;107599;1251;22536;-79
2023/04/08 06:49:56;;;;;;;43.10;27.20;;;;;;;;;;107523;1252;25312;-78
2023/04/08 06:52:23;;;;;;;39.60;22.90;;;;;;;;;;107557;1251;22519;-79
2023/04/08 06:54:49;;;;;;;33.60;21.70;;;;;;;;;;107566;1248;22531;-79
2023/04/08 06:57:16;;;;;;;34.00;20.70;;;;;;;;;;107570;1247;25502;-78
2023/04/08 06:59:42;;;;;;;31.00;20.00;;;;;;;;;;107656;1248;22527;-77
2023/04/08 07:02:08;;;;;;;36.70;22.80;;;;;;;;;;107735;1248;24314;-78
2023/04/08 07:04:35;;;;;;;29.30;18.80;;;;;;;;;;107634;1248;25217;-79
2023/04/08 07:07:01;;;;;;;31.70;19.30;;;;;;;;;;107643;1252;22508;-80
2023/04/08 07:09:27;;;;;;;47.00;34.70;;;;;;;;;;107686;1248;24847;-78
2023/04/08 07:11:54;;;;;;;42.80;30.00;;;;;;;;;;107491;1253;22540;-80
2023/04/08 07:14:20;;;;;;;36.00;26.10;;;;;;;;;;107542;1253;25385;-78
2023/04/08 07:16:47;;;;;;;31.10;21.70;;;;;;;;;;107565;1251;22576;-77
2023/04/08 07:19:13;;;;;;;37.90;24.10;;;;;;;;;;107517;1251;22570;-76
2023/04/08 07:21:40;;;;;;;31.70;21.10;;;;;;;;;;107533;1250;22535;-77
2023/04/08 07:24:06;;;;;;;34.40;20.10;;;;;;;;;;107499;1250;25275;-77
2023/04/08 07:26:33;;;;;;;29.80;19.30;;;;;;;;;;107523;1251;22531;-78
2023/04/08 07:28:59;;;;;;;31.10;18.30;;;;;;;;;;107532;1251;22522;-76
2023/04/08 07:31:26;;;;;;;30.20;23.10;;;;;;;;;;107579;1254;25360;-77
2023/04/08 07:33:52;;;;;;;30.30;21.70;;;;;;;;;;107522;1250;22544;-77
2023/04/08 07:36:19;;;;;;;34.10;25.70;;;;;;;;;;107471;1251;25211;-77
2023/04/08 07:38:46;;;;;;;25.60;18.80;;;;;;;;;;107490;1250;23906;-78
2023/04/08 07:41:12;;;;;;;28.90;17.50;;;;;;;;;;107482;1251;22957;-77
2023/04/08 07:43:39;;;;;;;23.30;17.30;;;;;;;;;;107495;1251;22536;-79
2023/04/08 07:46:05;;;;;;;23.10;16.60;;;;;;;;;;107580;1251;22568;-79
2023/04/08 07:48:32;;;;;;;23.10;20.00;;;;;;;;;;107533;1253;22527;-77
2023/04/08 07:51:08;;;;;;;22.70;18.90;;;;;;;;;;107540;1251;26179;-78
2023/04/08 07:53:34;;;;;;;21.20;17.20;;;;;;;;;;107614;1252;22531;-80
2023/04/08 07:56:02;;;;;;;36.10;28.70;;;;;;;;;;107607;1251;22557;-81
2023/04/08 07:58:30;;;;;;;22.00;19.60;;;;;;;;;;107482;1250;22592;-80
2023/04/08 08:00:57;;;;;;;20.70;15.00;;;;;;;;;;107522;1250;25340;-78
2023/04/08 08:03:24;;;;;;;16.40;14.00;;;;;;;;;;107470;1250;22790;-79
2023/04/08 08:05:50;;;;;;;17.90;14.50;;;;;;;;;;107545;1251;22518;-79
2023/04/08 08:08:16;;;;;;;16.70;13.50;;;;;;;;;;107507;1253;22524;-78
2023/04/08 08:10:43;;;;;;;12.40;10.20;;;;;;;;;;107547;1251;22627;-79
2023/04/08 08:13:11;;;;;;;16.90;13.90;;;;;;;;;;107536;1251;22515;-78
2023/04/08 08:15:37;;;;;;;12.80;9.90;;;;;;;;;;107520;1251;22483;-80
2023/04/08 08:18:04;;;;;;;13.10;10.70;;;;;;;;;;107521;1251;22519;-78
2023/04/08 08:20:30;;;;;;;10.10;8.60;;;;;;;;;;107523;1252;22641;-78
2023/04/08 08:22:56;;;;;;;10.40;8.30;;;;;;;;;;107539;1251;24215;-79
2023/04/08 08:25:23;;;;;;;11.40;8.20;;;;;;;;;;107543;1249;22517;-79
2023/04/08 08:27:49;;;;;;;12.30;10.20;;;;;;;;;;107480;1250;22535;-78
2023/04/08 08:30:18;;;;;;;16.80;12.20;;;;;;;;;;107474;1250;24327;-80
2023/04/08 08:32:46;;;;;;;14.00;10.70;;;;;;;;;;107651;1250;22673;-79
2023/04/08 08:35:12;;;;;;;15.00;11.10;;;;;;;;;;107498;1250;22724;-77
2023/04/08 08:37:39;;;;;;;15.30;12.00;;;;;;;;;;107546;1250;22534;-79
2023/04/08 08:40:06;;;;;;;15.30;11.60;;;;;;;;;;107493;1250;23348;-78
2023/04/08 08:42:32;;;;;;;16.50;12.20;;;;;;;;;;107536;1251;22538;-78
2023/04/08 08:45:00;;;;;;;15.60;11.90;;;;;;;;;;107555;1249;24436;-79
2023/04/08 08:47:27;;;;;;;16.30;11.70;;;;;;;;;;107634;1249;22522;-77
2023/04/08 08:49:53;;;;;;;15.90;12.20;;;;;;;;;;107565;1251;22523;-79
2023/04/08 08:52:19;;;;;;;14.10;11.30;;;;;;;;;;107610;1251;22586;-78
2023/04/08 08:54:46;;;;;;;16.30;11.30;;;;;;;;;;107548;1252;22518;-79
2023/04/08 08:57:18;;;;;;;20.60;14.70;;;;;;;;;;107569;1250;22587;-79
2023/04/08 08:59:45;;;;;;;17.60;12.60;;;;;;;;;;107516;1250;22529;-78
2023/04/08 09:02:29;;;;;;;14.30;9.90;;;;;;;;;;107549;1251;22987;-79
2023/04/08 09:04:59;;;;;;;13.70;9.40;;;;;;;;;;107610;1251;25385;-77
2023/04/08 09:07:26;;;;;;;15.50;10.70;;;;;;;;;;107495;1251;23325;-79
2023/04/08 09:09:53;;;;;;;13.60;10.40;;;;;;;;;;107602;1250;25292;-78
2023/04/08 09:12:20;;;;;;;19.10;13.50;;;;;;;;;;107673;1251;22524;-78
2023/04/08 09:14:47;;;;;;;12.50;10.40;;;;;;;;;;107529;1250;22592;-79
2023/04/08 09:17:13;;;;;;;14.20;10.40;;;;;;;;;;107540;1249;25402;-79
2023/04/08 09:19:42;;;;;;;16.60;10.20;;;;;;;;;;107525;1254;22545;-78
2023/04/08 09:22:09;;;;;;;14.40;11.00;;;;;;;;;;107645;1250;23143;-79
2023/04/08 09:24:36;;;;;;;14.80;9.50;;;;;;;;;;107571;1250;22539;-80
2023/04/08 09:27:03;;;;;;;12.10;9.10;;;;;;;;;;107749;1249;22539;-78
2023/04/08 09:29:30;;;;;;;11.30;8.40;;;;;;;;;;107565;1253;22638;-79
2023/04/08 09:31:59;;;;;;;14.70;8.10;;;;;;;;;;107491;1250;23004;-78
2023/04/08 09:34:26;;;;;;;12.70;8.70;;;;;;;;;;107522;1253;23310;-78
2023/04/08 09:36:52;;;;;;;12.70;8.10;;;;;;;;;;107614;1251;25343;-78
2023/04/08 09:39:21;;;;;;;9.60;7.10;;;;;;;;;;107686;1251;22600;-78
2023/04/08 09:41:47;;;;;;;10.90;7.40;;;;;;;;;;107606;1249;25394;-79
2023/04/08 09:44:15;;;;;;;11.80;7.50;;;;;;;;;;107520;1251;22532;-80
2023/04/08 09:46:48;;;;;;;12.20;7.80;;;;;;;;;;107471;1253;24083;-77
2023/04/08 09:49:18;;;;;;;9.10;7.20;;;;;;;;;;107454;1250;22521;-80
2023/04/08 09:51:48;;;;;;;9.80;6.70;;;;;;;;;;107432;1256;22561;-78
2023/04/08 09:54:15;;;;;;;26.90;21.90;;;;;;;;;;107525;1253;22524;-79
2023/04/08 09:56:57;;;;;;;10.50;6.70;;;;;;;;;;107478;1251;24201;-80
2023/04/08 09:59:26;;;;;;;9.50;8.00;;;;;;;;;;107637;1253;25312;-78
2023/04/08 10:01:52;;;;;;;;;;;;;;;;;;107467;1250;26722;-78
2023/04/08 10:04:19;;;;;;;7.40;5.50;;;;;;;;;;107432;1250;25555;-80
2023/04/08 10:06:50;;;;;;;8.90;6.00;;;;;;;;;;107434;1250;25385;-79
2023/04/08 10:09:16;;;;;;;22.40;13.80;;;;;;;;;;107560;1251;22547;-78
2023/04/08 10:11:42;;;;;;;9.90;6.80;;;;;;;;;;107405;1252;22544;-78
2023/04/08 10:14:10;;;;;;;11.00;7.60;;;;;;;;;;107341;1249;22842;-78
2023/04/08 10:16:37;;;;;;;12.10;8.70;;;;;;;;;;107364;1252;22528;-78
2023/04/08 10:19:23;;;;;;;9.20;6.00;;;;;;;;;;107359;1250;24398;-80
2023/04/08 10:21:50;;;;;;;9.00;6.30;;;;;;;;;;107388;1252;22538;-79
2023/04/08 10:24:17;;;;;;;12.20;7.80;;;;;;;;;;107390;1249;26331;-78
2023/04/08 10:26:44;;;;;;;11.00;7.30;;;;;;;;;;107375;1251;25377;-79
2023/04/08 10:29:16;;;;;;;10.70;7.60;;;;;;;;;;107366;1253;22528;-78
2023/04/08 10:31:43;;;;;;;12.20;8.40;;;;;;;;;;107399;1252;24252;-78
2023/04/08 10:34:26;;;;;;;15.60;10.80;;;;;;;;;;107395;1253;25368;-79
2023/04/08 10:36:54;;;;;;;11.90;7.80;;;;;;;;;;107377;1253;25252;-80
2023/04/08 10:39:20;;;;;;;12.90;9.50;;;;;;;;;;107526;1249;22574;-79
2023/04/08 10:41:50;;;;;;;12.50;8.00;;;;;;;;;;107400;1250;22542;-78
2023/04/08 10:44:17;;;;;;;11.70;8.10;;;;;;;;;;107478;1250;25375;-79
2023/04/08 10:46:44;;;;;;;10.70;7.30;;;;;;;;;;107466;1250;25510;-79
2023/04/08 10:49:11;;;;;;;11.80;7.90;;;;;;;;;;107457;1249;22810;-78
2023/04/08 10:51:38;;;;;;;25.10;14.40;;;;;;;;;;107377;1249;24075;-79
2023/04/08 10:54:09;;;;;;;13.80;9.80;;;;;;;;;;107373;1250;23773;-77
2023/04/08 10:56:36;;;;;;;25.90;15.80;;;;;;;;;;107356;1249;22546;-78
2023/04/08 10:59:02;;;;;;;16.70;11.80;;;;;;;;;;107385;1250;23223;-78
2023/04/08 11:01:36;;;;;;;11.40;8.50;;;;;;;;;;107505;1250;22553;-78
2023/04/08 11:04:05;;;;;;;13.20;8.90;;;;;;;;;;107386;1249;25274;-80
2023/04/08 11:06:32;;;;;;;14.00;9.40;;;;;;;;;;107351;1249;22534;-80
2023/04/08 11:09:01;;;;;;;11.80;7.90;;;;;;;;;;107606;1248;22522;-78
2023/04/08 11:11:28;;;;;;;12.10;8.20;;;;;;;;;;107548;1250;22756;-78
2023/04/08 11:13:55;;;;;;;11.60;7.80;;;;;;;;;;107495;1252;22533;-78
2023/04/08 11:16:22;;;;;;;12.80;7.30;;;;;;;;;;107629;1251;25389;-80
2023/04/08 11:18:49;;;;;;;12.10;8.30;;;;;;;;;;107589;1250;22598;-79
2023/04/08 11:21:16;;;;;;;10.40;8.00;;;;;;;;;;107746;1250;22534;-79
2023/04/08 11:23:42;;;;;;;11.60;8.30;;;;;;;;;;107822;1250;24176;-80
2023/04/08 11:26:09;;;;;;;12.50;8.40;;;;;;;;;;107849;1252;25377;-79
2023/04/08 11:28:35;;;;;;;11.40;8.70;;;;;;;;;;107752;1249;25383;-80
2023/04/08 11:31:03;;;;;;;15.30;10.40;;;;;;;;;;107763;1250;23312;-79
2023/04/08 11:33:32;;;;;;;16.60;10.50;;;;;;;;;;107752;1249;22564;-80
2023/04/08 11:35:59;;;;;;;13.90;10.00;;;;;;;;;;107781;1253;25219;-78
2023/04/08 11:38:26;;;;;;;13.30;8.40;;;;;;;;;;107565;1250;24238;-78
2023/04/08 11:40:55;;;;;;;14.70;9.50;;;;;;;;;;107601;1250;25310;-79
2023/04/08 11:43:22;;;;;;;14.40;9.70;;;;;;;;;;107577;1250;25346;-78
2023/04/08 11:45:48;;;;;;;17.00;11.40;;;;;;;;;;107647;1249;25314;-77
2023/04/08 11:48:15;;;;;;;16.50;10.50;;;;;;;;;;107639;1250;24104;-78
2023/04/08 11:50:42;;;;;;;19.10;10.20;;;;;;;;;;108121;1249;25366;-79
2023/04/08 11:53:18;;;;;;;16.60;12.30;;;;;;;;;;107635;1250;25326;-78
2023/04/08 11:55:45;;;;;;;18.60;12.80;;;;;;;;;;107540;1250;22537;-80
2023/04/08 11:58:11;;;;;;;55.50;33.80;;;;;;;;;;107617;1249;22518;-79
2023/04/08 12:00:38;;;;;;;18.00;12.80;;;;;;;;;;107582;1251;22972;-78
2023/04/08 12:03:05;;;;;;;16.00;11.10;;;;;;;;;;107693;1251;25223;-78
2023/04/08 12:05:31;;;;;;;23.00;13.40;;;;;;;;;;107643;1251;22647;-80
2023/04/08 12:07:57;;;;;;;17.30;12.50;;;;;;;;;;107695;1250;22977;-78
2023/04/08 12:10:24;;;;;;;16.60;13.60;;;;;;;;;;107744;1253;22517;-79
2023/04/08 12:12:50;;;;;;;14.60;11.30;;;;;;;;;;107946;1251;22488;-80
2023/04/08 12:15:17;;;;;;;14.70;10.60;;;;;;;;;;109235;1250;24186;-81
2023/04/08 12:17:43;;;;;;;25.70;15.90;;;;;;;;;;107727;1253;22580;-80
2023/04/08 12:20:10;;;;;;;28.10;14.10;;;;;;;;;;107688;1250;23741;-80
2023/04/08 12:22:36;;;;;;;25.90;16.90;;;;;;;;;;107693;1251;26482;-78
2023/04/08 12:25:03;;;;;;;21.30;12.90;;;;;;;;;;107647;1251;22518;-78
2023/04/08 12:27:30;;;;;;;23.80;15.20;;;;;;;;;;107662;1250;26333;-80
2023/04/08 12:29:56;;;;;;;18.50;13.50;;;;;;;;;;107565;1251;22534;-80
2023/04/08 12:32:24;;;;;;;20.00;13.50;;;;;;;;;;107555;1252;22532;-80
2023/04/08 12:34:50;;;;;;;20.00;13.70;;;;;;;;;;107583;1250;22475;-80
2023/04/08 12:37:17;;;;;;;18.40;13.70;;;;;;;;;;110917;1249;22176;-76
2023/04/08 12:39:43;;;;;;;20.10;14.90;;;;;;;;;;107831;1252;22547;-80
2023/04/08 12:42:09;;;;;;;23.00;16.70;;;;;;;;;;107626;1250;22527;-78
2023/04/08 12:44:36;;;;;;;24.20;16.10;;;;;;;;;;107523;1250;25368;-79
2023/04/08 12:47:02;;;;;;;29.30;19.20;;;;;;;;;;107576;1252;22521;-80
2023/04/08 12:49:28;;;;;;;17.10;11.40;;;;;;;;;;107629;1250;22631;-78
2023/04/08 12:51:55;;;;;;;20.90;14.90;;;;;;;;;;107625;1249;22650;-80
2023/04/08 12:54:21;;;;;;;41.60;26.40;;;;;;;;;;107610;1252;22567;-80
2023/04/08 12:56:47;;;;;;;23.40;14.90;;;;;;;;;;107541;1253;22590;-79
2023/04/08 12:59:14;;;;;;;20.50;14.20;;;;;;;;;;107565;1249;25353;-80
2023/04/08 13:01:40;;;;;;;22.90;14.10;;;;;;;;;;107569;1250;22532;-80
2023/04/08 13:04:07;;;;;;;24.40;15.00;;;;;;;;;;107605;1250;22521;-78
2023/04/08 13:06:33;;;;;;;24.20;15.30;;;;;;;;;;107606;1250;24263;-79
2023/04/08 13:08:59;;;;;;;26.70;18.50;;;;;;;;;;110368;1249;22349;-80
2023/04/08 13:11:26;;;;;;;25.30;16.10;;;;;;;;;;110879;1249;22219;-76
2023/04/08 13:13:52;;;;;;;25.80;16.80;;;;;;;;;;108963;1249;22557;-80
2023/04/08 13:16:20;;;;;;;28.00;16.10;;;;;;;;;;107556;1252;25001;-78
2023/04/08 13:18:47;;;;;;;25.00;15.80;;;;;;;;;;107559;1250;23268;-78
2023/04/08 13:21:13;;;;;;;24.60;15.10;;;;;;;;;;107601;1250;25039;-78
2023/04/08 13:23:39;;;;;;;28.80;17.50;;;;;;;;;;107606;1249;22940;-78
2023/04/08 13:26:06;;;;;;;31.00;18.70;;;;;;;;;;107571;1250;22988;-80
2023/04/08 13:28:32;;;;;;;31.50;22.20;;;;;;;;;;107560;1249;23010;-78
2023/04/08 13:30:58;;;;;;;30.20;19.40;;;;;;;;;;107568;1249;23278;-78
2023/04/08 13:33:25;;;;;;;28.40;18.60;;;;;;;;;;107587;1250;23746;-79
2023/04/08 13:35:51;;;;;;;28.20;18.60;;;;;;;;;;107595;1252;26063;-79
2023/04/08 13:38:17;;;;;;;33.10;19.40;;;;;;;;;;107613;1250;25370;-78
2023/04/08 13:40:44;;;;;;;29.50;20.50;;;;;;;;;;107665;1250;25479;-78
2023/04/08 13:43:10;;;;;;;37.00;24.80;;;;;;;;;;107489;1250;25259;-79
2023/04/08 13:45:37;;;;;;;38.30;20.40;;;;;;;;;;107550;1249;25368;-80
2023/04/08 13:48:04;;;;;;;34.60;23.30;;;;;;;;;;107555;1250;25865;-80
2023/04/08 13:50:30;;;;;;;33.00;21.90;;;;;;;;;;107549;1250;22558;-79
2023/04/08 13:52:57;;;;;;;29.80;19.80;;;;;;;;;;107612;1250;22635;-80
2023/04/08 13:55:24;;;;;;;31.30;21.80;;;;;;;;;;107552;1250;23646;-79
2023/04/08 13:57:50;;;;;;;31.50;19.90;;;;;;;;;;107531;1251;22468;-80
2023/04/08 14:00:16;;;;;;;30.80;20.50;;;;;;;;;;107495;1252;152386;-80
2023/04/08 14:02:43;;;;;;;33.30;21.20;;;;;;;;;;107637;1251;22516;-79
2023/04/08 14:05:09;;;;;;;52.50;31.10;;;;;;;;;;107638;1250;22557;-78